首页
METAR-TAF:

METAR-TAF

机场 :

維多利亞, 西班牙

纬度: 42-53N, 经度: 002-43W, 海拔: 513米

当前天气观测

该预报发布于26分钟前的11:00 UTC
风速2节,风向北转东北
温度 22°C
湿度 43%
气压 1020 hPa
能见度10公里或以上
1500米以下无云,无积雨云

METAR: LEVT 161100Z 03002KT CAVOK 22/09 Q1020

时间: 13:26 (11:26 UTC)

预报

该预报发布于6小时和26分钟前的05:00 UTC
预报有效从16日的 06点(UTC)到 17日的 06点(UTC)
风速3节,风向多变
能见度10公里或以上
少量云层高于3000英尺
几率 30% :
短暂存在
从 16日的 06点(UTC)到 16日的 08点(UTC)
能見度: 3000
轻雾
几率 30% :
短暂存在
从 16日的 06点(UTC)到 16日的 07点(UTC)
能見度: 0350
层高于100英尺
成为
从 16日的 14点(UTC)到 16日的 18点(UTC)
风速10节,风向北转东北
成为
从 16日的 18点(UTC)到 16日的 22点(UTC)
风速3节,风向多变
几率 30% :
短暂存在
从 17日的 03点(UTC)到 17日的 06点(UTC)
能見度: 0350
层高于100英尺

TAF: LEVT 160500Z 1606/1706 VRB03KT 9999 FEW030 TX27/1615Z TN04/1606Z PROB30 TEMPO 1606/1608 3000 BR PROB30 TEMPO 1606/1607 0350 FG VV001 BECMG 1614/1618 02010KT BECMG 1618/1622 VRB03KT PROB30 TEMPO 1703/1706 0350 FG VV001

超过4000个机场的气象观测和天气预报(METAR&TAF报告)。

可查询的气象台以黄色和红色小点在地图上表示。

将鼠标移到小点上方,可查看气象台名称。

然后点击查看天气观测和预报。

如需切换地图:点击带黑十字的绿色按钮放大地图;点击带横线的绿色按钮缩小地图;或者点击绿色箭头查看邻近地区的地图。


METAR-TAF: